sensor_id;sensor_type;location;lat;lon;timestamp;P1;durP1;ratioP1;P2;durP2;ratioP2
70733;SDS011;58320;48.804;9.252;2022-10-16T00:01:18;6.97;;;2.40;;
70733;SDS011;58320;48.804;9.252;2022-10-16T00:03:47;6.13;;;2.65;;
70733;SDS011;58320;48.804;9.252;2022-10-16T00:06:14;4.43;;;2.20;;
70733;SDS011;58320;48.804;9.252;2022-10-16T00:08:42;7.05;;;2.40;;
70733;SDS011;58320;48.804;9.252;2022-10-16T00:11:20;4.57;;;1.90;;
70733;SDS011;58320;48.804;9.252;2022-10-16T00:13:54;5.93;;;2.83;;
70733;SDS011;58320;48.804;9.252;2022-10-16T00:16:24;6.05;;;2.42;;
70733;SDS011;58320;48.804;9.252;2022-10-16T00:18:51;5.68;;;2.53;;
70733;SDS011;58320;48.804;9.252;2022-10-16T00:21:18;6.10;;;2.10;;
70733;SDS011;58320;48.804;9.252;2022-10-16T00:23:50;6.03;;;2.10;;
70733;SDS011;58320;48.804;9.252;2022-10-16T00:26:18;4.80;;;2.05;;
70733;SDS011;58320;48.804;9.252;2022-10-16T00:28:45;6.05;;;1.77;;
70733;SDS011;58320;48.804;9.252;2022-10-16T00:31:15;6.18;;;2.40;;
70733;SDS011;58320;48.804;9.252;2022-10-16T00:33:43;3.93;;;2.23;;
70733;SDS011;58320;48.804;9.252;2022-10-16T00:36:10;8.07;;;2.50;;
70733;SDS011;58320;48.804;9.252;2022-10-16T00:38:39;4.60;;;2.40;;
70733;SDS011;58320;48.804;9.252;2022-10-16T00:41:06;5.10;;;2.58;;
70733;SDS011;58320;48.804;9.252;2022-10-16T00:46:17;6.67;;;2.43;;
70733;SDS011;58320;48.804;9.252;2022-10-16T00:49:12;6.32;;;2.47;;
70733;SDS011;58320;48.804;9.252;2022-10-16T00:51:47;5.05;;;2.50;;
70733;SDS011;58320;48.804;9.252;2022-10-16T00:54:17;5.10;;;2.90;;
70733;SDS011;58320;48.804;9.252;2022-10-16T00:56:48;5.65;;;2.63;;
70733;SDS011;58320;48.804;9.252;2022-10-16T00:59:16;11.93;;;2.97;;
70733;SDS011;58320;48.804;9.252;2022-10-16T01:02:13;5.57;;;2.80;;
70733;SDS011;58320;48.804;9.252;2022-10-16T01:04:42;6.30;;;2.80;;
70733;SDS011;58320;48.804;9.252;2022-10-16T01:15:59;7.03;;;3.20;;
70733;SDS011;58320;48.804;9.252;2022-10-16T01:18:51;8.07;;;3.00;;
70733;SDS011;58320;48.804;9.252;2022-10-16T01:21:27;5.65;;;3.17;;
70733;SDS011;58320;48.804;9.252;2022-10-16T01:32:55;5.35;;;2.80;;
70733;SDS011;58320;48.804;9.252;2022-10-16T01:35:45;5.30;;;2.50;;
70733;SDS011;58320;48.804;9.252;2022-10-16T01:41:13;5.03;;;2.53;;
70733;SDS011;58320;48.804;9.252;2022-10-16T01:43:47;5.10;;;2.30;;
70733;SDS011;58320;48.804;9.252;2022-10-16T01:46:20;4.70;;;2.50;;
70733;SDS011;58320;48.804;9.252;2022-10-16T01:48:48;5.15;;;2.40;;
70733;SDS011;58320;48.804;9.252;2022-10-16T01:51:15;6.03;;;2.80;;
70733;SDS011;58320;48.804;9.252;2022-10-16T01:53:43;6.03;;;2.20;;
70733;SDS011;58320;48.804;9.252;2022-10-16T01:56:13;5.50;;;2.53;;
70733;SDS011;58320;48.804;9.252;2022-10-16T01:58:44;6.15;;;2.60;;
70733;SDS011;58320;48.804;9.252;2022-10-16T02:01:20;5.45;;;2.80;;
70733;SDS011;58320;48.804;9.252;2022-10-16T02:03:49;6.68;;;2.80;;
70733;SDS011;58320;48.804;9.252;2022-10-16T02:06:19;4.90;;;2.30;;
70733;SDS011;58320;48.804;9.252;2022-10-16T02:08:45;4.82;;;2.47;;
70733;SDS011;58320;48.804;9.252;2022-10-16T02:11:11;6.63;;;2.45;;
70733;SDS011;58320;48.804;9.252;2022-10-16T02:13:48;4.32;;;2.53;;
70733;SDS011;58320;48.804;9.252;2022-10-16T02:16:20;4.93;;;2.50;;
70733;SDS011;58320;48.804;9.252;2022-10-16T02:18:48;5.47;;;2.40;;
70733;SDS011;58320;48.804;9.252;2022-10-16T02:21:19;5.30;;;2.13;;
70733;SDS011;58320;48.804;9.252;2022-10-16T02:23:54;7.03;;;2.28;;
70733;SDS011;58320;48.804;9.252;2022-10-16T02:26:30;5.23;;;2.20;;
70733;SDS011;58320;48.804;9.252;2022-10-16T02:29:10;4.30;;;2.42;;
70733;SDS011;58320;48.804;9.252;2022-10-16T02:31:43;4.43;;;2.28;;
70733;SDS011;58320;48.804;9.252;2022-10-16T02:34:13;4.05;;;1.98;;
70733;SDS011;58320;48.804;9.252;2022-10-16T02:36:40;4.55;;;2.25;;
70733;SDS011;58320;48.804;9.252;2022-10-16T02:39:08;5.50;;;2.37;;
70733;SDS011;58320;48.804;9.252;2022-10-16T02:41:34;4.65;;;2.17;;
70733;SDS011;58320;48.804;9.252;2022-10-16T02:44:01;4.00;;;1.90;;
70733;SDS011;58320;48.804;9.252;2022-10-16T02:46:27;4.68;;;2.03;;
70733;SDS011;58320;48.804;9.252;2022-10-16T02:48:52;7.07;;;1.83;;
70733;SDS011;58320;48.804;9.252;2022-10-16T02:51:18;4.20;;;1.88;;
70733;SDS011;58320;48.804;9.252;2022-10-16T02:53:44;6.57;;;2.03;;
70733;SDS011;58320;48.804;9.252;2022-10-16T02:56:10;4.23;;;1.57;;
70733;SDS011;58320;48.804;9.252;2022-10-16T02:58:35;3.60;;;1.95;;
70733;SDS011;58320;48.804;9.252;2022-10-16T03:01:01;4.23;;;1.80;;
70733;SDS011;58320;48.804;9.252;2022-10-16T03:03:27;6.93;;;1.80;;
70733;SDS011;58320;48.804;9.252;2022-10-16T03:05:53;3.33;;;1.65;;
70733;SDS011;58320;48.804;9.252;2022-10-16T03:08:18;4.63;;;1.90;;
70733;SDS011;58320;48.804;9.252;2022-10-16T03:10:48;5.65;;;2.80;;
70733;SDS011;58320;48.804;9.252;2022-10-16T03:13:15;4.07;;;2.10;;
70733;SDS011;58320;48.804;9.252;2022-10-16T03:15:40;5.20;;;2.30;;
70733;SDS011;58320;48.804;9.252;2022-10-16T03:18:06;5.90;;;2.53;;
70733;SDS011;58320;48.804;9.252;2022-10-16T03:20:32;5.07;;;2.22;;
70733;SDS011;58320;48.804;9.252;2022-10-16T03:22:58;5.55;;;2.30;;
70733;SDS011;58320;48.804;9.252;2022-10-16T03:25:24;5.50;;;1.97;;
70733;SDS011;58320;48.804;9.252;2022-10-16T03:27:50;3.60;;;1.80;;
70733;SDS011;58320;48.804;9.252;2022-10-16T03:30:15;4.80;;;2.10;;
70733;SDS011;58320;48.804;9.252;2022-10-16T03:32:41;5.23;;;2.20;;
70733;SDS011;58320;48.804;9.252;2022-10-16T03:35:09;4.68;;;2.58;;
70733;SDS011;58320;48.804;9.252;2022-10-16T03:37:35;4.90;;;2.10;;
70733;SDS011;58320;48.804;9.252;2022-10-16T03:40:01;5.50;;;2.20;;
70733;SDS011;58320;48.804;9.252;2022-10-16T03:42:28;4.68;;;2.08;;
70733;SDS011;58320;48.804;9.252;2022-10-16T03:44:54;5.05;;;2.38;;
70733;SDS011;58320;48.804;9.252;2022-10-16T03:47:20;5.50;;;2.30;;
70733;SDS011;58320;48.804;9.252;2022-10-16T03:49:48;5.03;;;2.10;;
70733;SDS011;58320;48.804;9.252;2022-10-16T03:52:14;6.63;;;2.40;;
70733;SDS011;58320;48.804;9.252;2022-10-16T03:54:41;4.45;;;2.05;;
70733;SDS011;58320;48.804;9.252;2022-10-16T03:57:07;4.17;;;2.30;;
70733;SDS011;58320;48.804;9.252;2022-10-16T03:59:32;4.45;;;2.13;;
70733;SDS011;58320;48.804;9.252;2022-10-16T04:01:58;4.88;;;2.40;;
70733;SDS011;58320;48.804;9.252;2022-10-16T04:04:24;3.87;;;1.80;;
70733;SDS011;58320;48.804;9.252;2022-10-16T04:06:53;3.30;;;1.83;;
70733;SDS011;58320;48.804;9.252;2022-10-16T04:09:18;6.80;;;1.90;;
70733;SDS011;58320;48.804;9.252;2022-10-16T04:11:44;3.60;;;1.80;;
70733;SDS011;58320;48.804;9.252;2022-10-16T04:14:10;3.80;;;2.05;;
70733;SDS011;58320;48.804;9.252;2022-10-16T04:16:36;4.97;;;1.90;;
70733;SDS011;58320;48.804;9.252;2022-10-16T04:19:02;3.30;;;1.70;;
70733;SDS011;58320;48.804;9.252;2022-10-16T04:21:28;4.38;;;1.67;;
70733;SDS011;58320;48.804;9.252;2022-10-16T04:23:53;3.63;;;1.65;;
70733;SDS011;58320;48.804;9.252;2022-10-16T04:26:20;4.77;;;2.63;;
70733;SDS011;58320;48.804;9.252;2022-10-16T04:28:45;6.25;;;2.75;;
70733;SDS011;58320;48.804;9.252;2022-10-16T04:31:11;4.45;;;1.60;;
70733;SDS011;58320;48.804;9.252;2022-10-16T04:33:37;3.53;;;1.40;;
70733;SDS011;58320;48.804;9.252;2022-10-16T04:36:03;5.18;;;1.40;;
70733;SDS011;58320;48.804;9.252;2022-10-16T04:38:29;3.35;;;1.60;;
70733;SDS011;58320;48.804;9.252;2022-10-16T04:40:56;6.38;;;1.52;;
70733;SDS011;58320;48.804;9.252;2022-10-16T04:43:21;5.43;;;1.60;;
70733;SDS011;58320;48.804;9.252;2022-10-16T04:45:48;3.95;;;1.40;;
70733;SDS011;58320;48.804;9.252;2022-10-16T04:48:15;4.40;;;1.88;;
70733;SDS011;58320;48.804;9.252;2022-10-16T04:50:42;3.05;;;1.40;;
70733;SDS011;58320;48.804;9.252;2022-10-16T04:53:07;4.40;;;1.53;;
70733;SDS011;58320;48.804;9.252;2022-10-16T04:55:33;3.28;;;1.65;;
70733;SDS011;58320;48.804;9.252;2022-10-16T04:57:59;5.05;;;1.60;;
70733;SDS011;58320;48.804;9.252;2022-10-16T05:00:25;3.43;;;1.47;;
70733;SDS011;58320;48.804;9.252;2022-10-16T05:02:51;3.20;;;1.40;;
70733;SDS011;58320;48.804;9.252;2022-10-16T05:05:17;4.53;;;1.38;;
70733;SDS011;58320;48.804;9.252;2022-10-16T05:07:46;3.25;;;1.60;;
70733;SDS011;58320;48.804;9.252;2022-10-16T05:10:14;3.70;;;1.40;;
70733;SDS011;58320;48.804;9.252;2022-10-16T05:12:40;5.10;;;1.73;;
70733;SDS011;58320;48.804;9.252;2022-10-16T05:15:06;3.78;;;1.67;;
70733;SDS011;58320;48.804;9.252;2022-10-16T05:17:33;2.70;;;1.30;;
70733;SDS011;58320;48.804;9.252;2022-10-16T05:19:59;4.23;;;1.60;;
70733;SDS011;58320;48.804;9.252;2022-10-16T05:22:25;3.83;;;1.60;;
70733;SDS011;58320;48.804;9.252;2022-10-16T05:24:50;3.00;;;1.50;;
70733;SDS011;58320;48.804;9.252;2022-10-16T05:27:16;3.10;;;1.37;;
70733;SDS011;58320;48.804;9.252;2022-10-16T05:29:45;3.28;;;1.27;;
70733;SDS011;58320;48.804;9.252;2022-10-16T05:32:12;7.00;;;1.40;;
70733;SDS011;58320;48.804;9.252;2022-10-16T05:34:39;3.25;;;1.40;;
70733;SDS011;58320;48.804;9.252;2022-10-16T05:37:05;3.83;;;1.50;;
70733;SDS011;58320;48.804;9.252;2022-10-16T05:39:31;6.45;;;1.52;;
70733;SDS011;58320;48.804;9.252;2022-10-16T05:41:57;4.05;;;1.40;;
70733;SDS011;58320;48.804;9.252;2022-10-16T05:44:22;2.93;;;1.33;;
70733;SDS011;58320;48.804;9.252;2022-10-16T05:46:48;3.33;;;1.55;;
70733;SDS011;58320;48.804;9.252;2022-10-16T05:49:14;4.97;;;1.40;;
70733;SDS011;58320;48.804;9.252;2022-10-16T05:51:40;3.40;;;1.57;;
70733;SDS011;58320;48.804;9.252;2022-10-16T05:54:06;2.92;;;1.50;;
70733;SDS011;58320;48.804;9.252;2022-10-16T05:56:32;3.05;;;1.40;;
70733;SDS011;58320;48.804;9.252;2022-10-16T05:58:58;3.22;;;1.48;;
70733;SDS011;58320;48.804;9.252;2022-10-16T06:01:24;2.83;;;1.50;;
70733;SDS011;58320;48.804;9.252;2022-10-16T06:03:50;3.13;;;1.50;;
70733;SDS011;58320;48.804;9.252;2022-10-16T06:06:18;4.45;;;1.50;;
70733;SDS011;58320;48.804;9.252;2022-10-16T06:08:46;3.83;;;1.73;;
70733;SDS011;58320;48.804;9.252;2022-10-16T06:11:14;4.03;;;1.63;;
70733;SDS011;58320;48.804;9.252;2022-10-16T06:13:49;5.87;;;1.93;;
70733;SDS011;58320;48.804;9.252;2022-10-16T06:16:16;5.40;;;1.58;;
70733;SDS011;58320;48.804;9.252;2022-10-16T06:18:42;8.52;;;1.80;;
70733;SDS011;58320;48.804;9.252;2022-10-16T06:21:09;3.40;;;1.85;;
70733;SDS011;58320;48.804;9.252;2022-10-16T06:23:46;4.40;;;1.60;;
70733;SDS011;58320;48.804;9.252;2022-10-16T06:26:13;4.82;;;2.00;;
70733;SDS011;58320;48.804;9.252;2022-10-16T06:28:45;3.58;;;1.65;;
70733;SDS011;58320;48.804;9.252;2022-10-16T06:31:11;4.13;;;1.80;;
70733;SDS011;58320;48.804;9.252;2022-10-16T06:33:38;6.85;;;2.10;;
70733;SDS011;58320;48.804;9.252;2022-10-16T06:38:40;3.70;;;1.40;;
70733;SDS011;58320;48.804;9.252;2022-10-16T06:41:06;5.88;;;1.70;;
70733;SDS011;58320;48.804;9.252;2022-10-16T06:43:35;4.38;;;1.77;;
70733;SDS011;58320;48.804;9.252;2022-10-16T06:46:01;3.50;;;1.63;;
70733;SDS011;58320;48.804;9.252;2022-10-16T06:48:28;3.25;;;1.52;;
70733;SDS011;58320;48.804;9.252;2022-10-16T06:51:04;3.92;;;1.73;;
70733;SDS011;58320;48.804;9.252;2022-10-16T06:53:37;5.40;;;2.67;;
70733;SDS011;58320;48.804;9.252;2022-10-16T06:56:25;4.43;;;2.67;;
70733;SDS011;58320;48.804;9.252;2022-10-16T06:58:53;5.13;;;1.90;;
70733;SDS011;58320;48.804;9.252;2022-10-16T07:01:20;3.47;;;1.77;;
70733;SDS011;58320;48.804;9.252;2022-10-16T07:03:48;4.22;;;1.95;;
70733;SDS011;58320;48.804;9.252;2022-10-16T07:06:16;4.57;;;1.80;;
70733;SDS011;58320;48.804;9.252;2022-10-16T07:08:46;4.25;;;1.83;;
70733;SDS011;58320;48.804;9.252;2022-10-16T07:11:13;2.73;;;1.40;;
70733;SDS011;58320;48.804;9.252;2022-10-16T07:13:44;4.20;;;1.60;;
70733;SDS011;58320;48.804;9.252;2022-10-16T07:16:12;3.58;;;1.60;;
70733;SDS011;58320;48.804;9.252;2022-10-16T07:18:44;3.85;;;1.80;;
70733;SDS011;58320;48.804;9.252;2022-10-16T07:23:43;5.17;;;1.93;;
70733;SDS011;58320;48.804;9.252;2022-10-16T07:26:09;4.10;;;1.50;;
70733;SDS011;58320;48.804;9.252;2022-10-16T07:28:36;3.85;;;1.77;;
70733;SDS011;58320;48.804;9.252;2022-10-16T07:31:05;6.30;;;1.83;;
70733;SDS011;58320;48.804;9.252;2022-10-16T07:33:36;3.03;;;1.48;;
70733;SDS011;58320;48.804;9.252;2022-10-16T07:36:02;5.37;;;2.00;;
70733;SDS011;58320;48.804;9.252;2022-10-16T07:38:28;4.60;;;1.90;;
70733;SDS011;58320;48.804;9.252;2022-10-16T07:40:57;4.00;;;1.60;;
70733;SDS011;58320;48.804;9.252;2022-10-16T07:43:28;5.60;;;1.52;;
70733;SDS011;58320;48.804;9.252;2022-10-16T07:45:55;4.80;;;2.20;;
70733;SDS011;58320;48.804;9.252;2022-10-16T07:48:21;5.53;;;2.90;;
70733;SDS011;58320;48.804;9.252;2022-10-16T07:50:49;4.93;;;2.08;;
70733;SDS011;58320;48.804;9.252;2022-10-16T07:53:15;4.13;;;2.10;;
70733;SDS011;58320;48.804;9.252;2022-10-16T07:55:41;4.57;;;2.40;;
70733;SDS011;58320;48.804;9.252;2022-10-16T07:58:07;3.83;;;1.90;;
70733;SDS011;58320;48.804;9.252;2022-10-16T08:00:33;3.33;;;2.00;;
70733;SDS011;58320;48.804;9.252;2022-10-16T08:03:01;6.30;;;1.77;;
70733;SDS011;58320;48.804;9.252;2022-10-16T08:05:28;4.30;;;2.20;;
70733;SDS011;58320;48.804;9.252;2022-10-16T08:07:55;4.83;;;1.60;;
70733;SDS011;58320;48.804;9.252;2022-10-16T08:10:22;4.47;;;2.10;;
70733;SDS011;58320;48.804;9.252;2022-10-16T08:12:51;6.10;;;1.50;;
70733;SDS011;58320;48.804;9.252;2022-10-16T08:15:17;4.07;;;1.52;;
70733;SDS011;58320;48.804;9.252;2022-10-16T08:17:44;3.60;;;1.40;;
70733;SDS011;58320;48.804;9.252;2022-10-16T08:20:19;5.37;;;1.90;;
70733;SDS011;58320;48.804;9.252;2022-10-16T08:22:45;5.13;;;1.40;;
70733;SDS011;58320;48.804;9.252;2022-10-16T08:25:11;3.65;;;1.52;;
70733;SDS011;58320;48.804;9.252;2022-10-16T08:27:36;3.87;;;1.70;;
70733;SDS011;58320;48.804;9.252;2022-10-16T08:30:02;4.53;;;1.55;;
70733;SDS011;58320;48.804;9.252;2022-10-16T08:32:28;2.90;;;1.58;;
70733;SDS011;58320;48.804;9.252;2022-10-16T08:34:54;3.93;;;1.47;;
70733;SDS011;58320;48.804;9.252;2022-10-16T08:37:20;4.15;;;1.60;;
70733;SDS011;58320;48.804;9.252;2022-10-16T08:39:46;9.35;;;1.60;;
70733;SDS011;58320;48.804;9.252;2022-10-16T08:45:07;5.00;;;1.60;;
70733;SDS011;58320;48.804;9.252;2022-10-16T08:50:37;4.47;;;1.60;;
70733;SDS011;58320;48.804;9.252;2022-10-16T08:53:05;5.37;;;1.73;;
70733;SDS011;58320;48.804;9.252;2022-10-16T08:55:42;4.32;;;1.50;;
70733;SDS011;58320;48.804;9.252;2022-10-16T08:58:22;3.00;;;1.40;;
70733;SDS011;58320;48.804;9.252;2022-10-16T09:00:54;4.35;;;1.50;;
70733;SDS011;58320;48.804;9.252;2022-10-16T09:12:12;3.97;;;1.40;;
70733;SDS011;58320;48.804;9.252;2022-10-16T09:18:00;3.75;;;1.35;;
70733;SDS011;58320;48.804;9.252;2022-10-16T09:23:50;3.78;;;1.60;;
70733;SDS011;58320;48.804;9.252;2022-10-16T09:26:16;5.35;;;1.80;;
70733;SDS011;58320;48.804;9.252;2022-10-16T09:28:46;3.03;;;1.50;;
70733;SDS011;58320;48.804;9.252;2022-10-16T09:31:16;6.50;;;1.30;;
70733;SDS011;58320;48.804;9.252;2022-10-16T09:33:46;3.78;;;1.60;;
70733;SDS011;58320;48.804;9.252;2022-10-16T09:36:19;4.95;;;1.67;;
70733;SDS011;58320;48.804;9.252;2022-10-16T09:38:47;3.42;;;1.60;;
70733;SDS011;58320;48.804;9.252;2022-10-16T09:41:16;4.63;;;2.05;;
70733;SDS011;58320;48.804;9.252;2022-10-16T09:43:52;4.00;;;1.77;;
70733;SDS011;58320;48.804;9.252;2022-10-16T09:46:30;6.30;;;1.60;;
70733;SDS011;58320;48.804;9.252;2022-10-16T09:51:30;4.38;;;1.40;;
70733;SDS011;58320;48.804;9.252;2022-10-16T09:54:01;5.65;;;1.48;;
70733;SDS011;58320;48.804;9.252;2022-10-16T09:56:34;3.30;;;1.53;;
70733;SDS011;58320;48.804;9.252;2022-10-16T09:59:08;4.45;;;1.60;;
70733;SDS011;58320;48.804;9.252;2022-10-16T10:01:38;3.50;;;1.77;;
70733;SDS011;58320;48.804;9.252;2022-10-16T10:04:11;5.40;;;1.40;;
70733;SDS011;58320;48.804;9.252;2022-10-16T10:06:40;4.75;;;1.50;;
70733;SDS011;58320;48.804;9.252;2022-10-16T10:09:16;3.70;;;1.60;;
70733;SDS011;58320;48.804;9.252;2022-10-16T10:11:48;5.63;;;1.73;;
70733;SDS011;58320;48.804;9.252;2022-10-16T10:14:31;3.83;;;1.48;;
70733;SDS011;58320;48.804;9.252;2022-10-16T10:19:38;3.63;;;1.80;;
70733;SDS011;58320;48.804;9.252;2022-10-16T10:30:55;4.93;;;2.00;;
70733;SDS011;58320;48.804;9.252;2022-10-16T10:36:25;3.45;;;1.75;;
70733;SDS011;58320;48.804;9.252;2022-10-16T10:39:14;6.82;;;1.50;;
70733;SDS011;58320;48.804;9.252;2022-10-16T10:42:05;6.05;;;1.50;;
70733;SDS011;58320;48.804;9.252;2022-10-16T10:47:43;4.93;;;1.53;;
70733;SDS011;58320;48.804;9.252;2022-10-16T11:01:35;4.03;;;1.67;;
70733;SDS011;58320;48.804;9.252;2022-10-16T11:05:21;3.67;;;1.30;;
70733;SDS011;58320;48.804;9.252;2022-10-16T11:07:54;4.78;;;1.55;;
70733;SDS011;58320;48.804;9.252;2022-10-16T11:10:29;4.68;;;1.95;;
70733;SDS011;58320;48.804;9.252;2022-10-16T11:13:16;3.42;;;1.58;;
70733;SDS011;58320;48.804;9.252;2022-10-16T11:15:47;2.97;;;1.47;;
70733;SDS011;58320;48.804;9.252;2022-10-16T11:18:29;3.67;;;1.20;;
70733;SDS011;58320;48.804;9.252;2022-10-16T11:21:22;3.10;;;1.42;;
70733;SDS011;58320;48.804;9.252;2022-10-16T11:23:57;3.33;;;1.52;;
70733;SDS011;58320;48.804;9.252;2022-10-16T11:26:31;4.15;;;1.25;;
70733;SDS011;58320;48.804;9.252;2022-10-16T11:29:01;4.85;;;1.42;;
70733;SDS011;58320;48.804;9.252;2022-10-16T11:31:50;3.20;;;1.20;;
70733;SDS011;58320;48.804;9.252;2022-10-16T11:34:35;3.28;;;1.23;;
70733;SDS011;58320;48.804;9.252;2022-10-16T11:37:12;2.63;;;1.40;;
70733;SDS011;58320;48.804;9.252;2022-10-16T11:39:43;2.75;;;1.40;;
70733;SDS011;58320;48.804;9.252;2022-10-16T11:42:13;2.90;;;1.40;;
70733;SDS011;58320;48.804;9.252;2022-10-16T11:45:10;5.67;;;1.40;;
70733;SDS011;58320;48.804;9.252;2022-10-16T11:47:58;3.43;;;1.23;;
70733;SDS011;58320;48.804;9.252;2022-10-16T11:50:31;4.25;;;1.33;;
70733;SDS011;58320;48.804;9.252;2022-10-16T11:55:42;2.80;;;1.30;;
70733;SDS011;58320;48.804;9.252;2022-10-16T12:01:17;4.80;;;1.10;;
70733;SDS011;58320;48.804;9.252;2022-10-16T12:04:14;2.80;;;1.30;;
70733;SDS011;58320;48.804;9.252;2022-10-16T12:09:31;2.78;;;1.60;;
70733;SDS011;58320;48.804;9.252;2022-10-16T12:12:02;3.92;;;1.60;;
70733;SDS011;58320;48.804;9.252;2022-10-16T12:20:00;2.60;;;1.20;;
70733;SDS011;58320;48.804;9.252;2022-10-16T12:22:41;2.83;;;1.30;;
70733;SDS011;58320;48.804;9.252;2022-10-16T12:30:40;2.97;;;1.35;;
70733;SDS011;58320;48.804;9.252;2022-10-16T12:33:24;2.37;;;1.10;;
70733;SDS011;58320;48.804;9.252;2022-10-16T12:35:57;3.15;;;1.40;;
70733;SDS011;58320;48.804;9.252;2022-10-16T12:38:26;2.80;;;1.30;;
70733;SDS011;58320;48.804;9.252;2022-10-16T12:43:37;3.47;;;1.55;;
70733;SDS011;58320;48.804;9.252;2022-10-16T12:48:34;4.53;;;1.83;;
70733;SDS011;58320;48.804;9.252;2022-10-16T12:54:03;4.07;;;1.60;;
70733;SDS011;58320;48.804;9.252;2022-10-16T13:03:15;4.35;;;1.70;;
70733;SDS011;58320;48.804;9.252;2022-10-16T13:09:09;3.88;;;1.70;;
70733;SDS011;58320;48.804;9.252;2022-10-16T13:12:05;3.28;;;1.55;;
70733;SDS011;58320;48.804;9.252;2022-10-16T13:14:49;3.63;;;1.70;;
70733;SDS011;58320;48.804;9.252;2022-10-16T13:25:25;3.00;;;1.58;;
70733;SDS011;58320;48.804;9.252;2022-10-16T13:28:40;5.83;;;1.90;;
70733;SDS011;58320;48.804;9.252;2022-10-16T13:31:10;4.60;;;1.90;;
70733;SDS011;58320;48.804;9.252;2022-10-16T13:33:49;8.05;;;1.50;;
70733;SDS011;58320;48.804;9.252;2022-10-16T13:36:24;3.50;;;1.80;;
70733;SDS011;58320;48.804;9.252;2022-10-16T13:39:00;2.75;;;1.45;;
70733;SDS011;58320;48.804;9.252;2022-10-16T13:41:44;3.20;;;1.10;;
70733;SDS011;58320;48.804;9.252;2022-10-16T13:44:14;3.38;;;1.40;;
70733;SDS011;58320;48.804;9.252;2022-10-16T13:46:44;2.90;;;1.40;;
70733;SDS011;58320;48.804;9.252;2022-10-16T13:49:15;3.58;;;1.33;;
70733;SDS011;58320;48.804;9.252;2022-10-16T13:51:53;2.72;;;1.60;;
70733;SDS011;58320;48.804;9.252;2022-10-16T13:54:21;2.67;;;1.30;;
70733;SDS011;58320;48.804;9.252;2022-10-16T13:56:48;2.10;;;1.03;;
70733;SDS011;58320;48.804;9.252;2022-10-16T13:59:27;2.40;;;1.30;;
70733;SDS011;58320;48.804;9.252;2022-10-16T14:01:59;3.80;;;1.50;;
70733;SDS011;58320;48.804;9.252;2022-10-16T14:04:37;2.70;;;1.50;;
70733;SDS011;58320;48.804;9.252;2022-10-16T14:07:04;5.30;;;1.90;;
70733;SDS011;58320;48.804;9.252;2022-10-16T14:09:30;4.00;;;1.40;;
70733;SDS011;58320;48.804;9.252;2022-10-16T14:12:00;3.10;;;1.70;;
70733;SDS011;58320;48.804;9.252;2022-10-16T14:14:31;3.60;;;1.60;;
70733;SDS011;58320;48.804;9.252;2022-10-16T14:17:18;3.00;;;1.60;;
70733;SDS011;58320;48.804;9.252;2022-10-16T14:19:57;4.10;;;1.57;;
70733;SDS011;58320;48.804;9.252;2022-10-16T14:22:36;3.07;;;1.50;;
70733;SDS011;58320;48.804;9.252;2022-10-16T14:27:44;4.15;;;1.40;;
70733;SDS011;58320;48.804;9.252;2022-10-16T14:30:21;4.75;;;1.30;;
70733;SDS011;58320;48.804;9.252;2022-10-16T14:32:55;2.55;;;1.23;;
70733;SDS011;58320;48.804;9.252;2022-10-16T14:35:43;3.07;;;1.70;;
70733;SDS011;58320;48.804;9.252;2022-10-16T14:38:19;2.80;;;1.20;;
70733;SDS011;58320;48.804;9.252;2022-10-16T14:40:47;6.00;;;1.48;;
70733;SDS011;58320;48.804;9.252;2022-10-16T14:43:16;4.40;;;1.27;;
70733;SDS011;58320;48.804;9.252;2022-10-16T14:45:54;5.28;;;1.42;;
70733;SDS011;58320;48.804;9.252;2022-10-16T14:48:22;2.97;;;1.47;;
70733;SDS011;58320;48.804;9.252;2022-10-16T14:50:48;2.85;;;1.50;;
70733;SDS011;58320;48.804;9.252;2022-10-16T14:53:15;2.80;;;1.42;;
70733;SDS011;58320;48.804;9.252;2022-10-16T14:55:41;4.50;;;1.75;;
70733;SDS011;58320;48.804;9.252;2022-10-16T14:58:29;4.00;;;2.03;;
70733;SDS011;58320;48.804;9.252;2022-10-16T15:00:55;3.07;;;1.60;;
70733;SDS011;58320;48.804;9.252;2022-10-16T15:03:21;4.15;;;1.52;;
70733;SDS011;58320;48.804;9.252;2022-10-16T15:05:47;2.95;;;1.70;;
70733;SDS011;58320;48.804;9.252;2022-10-16T15:08:13;4.00;;;1.40;;
70733;SDS011;58320;48.804;9.252;2022-10-16T15:10:40;4.40;;;1.60;;
70733;SDS011;58320;48.804;9.252;2022-10-16T15:13:09;4.53;;;2.00;;
70733;SDS011;58320;48.804;9.252;2022-10-16T15:15:42;2.75;;;1.40;;
70733;SDS011;58320;48.804;9.252;2022-10-16T15:18:10;3.10;;;1.70;;
70733;SDS011;58320;48.804;9.252;2022-10-16T15:20:36;4.70;;;1.90;;
70733;SDS011;58320;48.804;9.252;2022-10-16T15:23:05;3.33;;;1.50;;
70733;SDS011;58320;48.804;9.252;2022-10-16T15:25:52;3.15;;;1.60;;
70733;SDS011;58320;48.804;9.252;2022-10-16T15:28:20;8.68;;;1.67;;
70733;SDS011;58320;48.804;9.252;2022-10-16T15:30:49;3.08;;;1.60;;
70733;SDS011;58320;48.804;9.252;2022-10-16T15:33:18;4.63;;;1.80;;
70733;SDS011;58320;48.804;9.252;2022-10-16T15:35:48;2.90;;;1.40;;
70733;SDS011;58320;48.804;9.252;2022-10-16T15:38:16;5.10;;;1.77;;
70733;SDS011;58320;48.804;9.252;2022-10-16T15:40:43;3.80;;;1.50;;
70733;SDS011;58320;48.804;9.252;2022-10-16T15:43:11;3.58;;;1.50;;
70733;SDS011;58320;48.804;9.252;2022-10-16T15:45:36;3.10;;;1.63;;
70733;SDS011;58320;48.804;9.252;2022-10-16T15:48:03;3.17;;;1.90;;
70733;SDS011;58320;48.804;9.252;2022-10-16T15:50:29;3.15;;;1.67;;
70733;SDS011;58320;48.804;9.252;2022-10-16T15:52:56;3.97;;;1.80;;
70733;SDS011;58320;48.804;9.252;2022-10-16T15:55:22;3.57;;;1.73;;
70733;SDS011;58320;48.804;9.252;2022-10-16T15:57:48;4.35;;;1.80;;
70733;SDS011;58320;48.804;9.252;2022-10-16T16:00:15;3.20;;;1.77;;
70733;SDS011;58320;48.804;9.252;2022-10-16T16:02:49;3.80;;;1.60;;
70733;SDS011;58320;48.804;9.252;2022-10-16T16:05:19;3.57;;;1.50;;
70733;SDS011;58320;48.804;9.252;2022-10-16T16:07:47;3.53;;;1.50;;
70733;SDS011;58320;48.804;9.252;2022-10-16T16:10:14;5.88;;;2.00;;
70733;SDS011;58320;48.804;9.252;2022-10-16T16:12:41;3.33;;;1.60;;
70733;SDS011;58320;48.804;9.252;2022-10-16T16:15:07;4.93;;;2.55;;
70733;SDS011;58320;48.804;9.252;2022-10-16T16:17:35;3.57;;;2.00;;
70733;SDS011;58320;48.804;9.252;2022-10-16T16:20:02;2.88;;;1.50;;
70733;SDS011;58320;48.804;9.252;2022-10-16T16:22:29;3.20;;;1.50;;
70733;SDS011;58320;48.804;9.252;2022-10-16T16:24:55;5.03;;;1.90;;
70733;SDS011;58320;48.804;9.252;2022-10-16T16:27:21;5.33;;;2.27;;
70733;SDS011;58320;48.804;9.252;2022-10-16T16:29:49;4.47;;;1.73;;
70733;SDS011;58320;48.804;9.252;2022-10-16T16:32:15;4.22;;;1.90;;
70733;SDS011;58320;48.804;9.252;2022-10-16T16:34:41;3.60;;;1.60;;
70733;SDS011;58320;48.804;9.252;2022-10-16T16:37:06;4.57;;;1.77;;
70733;SDS011;58320;48.804;9.252;2022-10-16T16:39:32;3.85;;;1.90;;
70733;SDS011;58320;48.804;9.252;2022-10-16T16:41:58;4.13;;;1.73;;
70733;SDS011;58320;48.804;9.252;2022-10-16T16:44:24;3.70;;;1.90;;
70733;SDS011;58320;48.804;9.252;2022-10-16T16:46:51;4.15;;;2.22;;
70733;SDS011;58320;48.804;9.252;2022-10-16T16:49:17;6.70;;;3.50;;
70733;SDS011;58320;48.804;9.252;2022-10-16T16:51:43;7.03;;;3.90;;
70733;SDS011;58320;48.804;9.252;2022-10-16T16:54:09;6.88;;;3.83;;
70733;SDS011;58320;48.804;9.252;2022-10-16T16:56:37;7.78;;;3.20;;
70733;SDS011;58320;48.804;9.252;2022-10-16T16:59:04;5.10;;;2.78;;
70733;SDS011;58320;48.804;9.252;2022-10-16T17:01:30;6.73;;;2.70;;
70733;SDS011;58320;48.804;9.252;2022-10-16T17:03:56;4.00;;;2.30;;
70733;SDS011;58320;48.804;9.252;2022-10-16T17:06:25;4.55;;;2.33;;
70733;SDS011;58320;48.804;9.252;2022-10-16T17:08:54;4.82;;;2.38;;
70733;SDS011;58320;48.804;9.252;2022-10-16T17:11:22;5.00;;;2.30;;
70733;SDS011;58320;48.804;9.252;2022-10-16T17:13:51;5.65;;;3.05;;
70733;SDS011;58320;48.804;9.252;2022-10-16T17:16:19;5.53;;;2.40;;